createdAt,value
2023-04-13T00:01:40.708Z,85.89
2023-04-13T00:06:42.882Z,85.95
2023-04-13T00:11:47.008Z,85.29
2023-04-13T00:16:51.574Z,85.76
2023-04-13T00:21:53.896Z,86.20
2023-04-13T00:26:57.153Z,86.07
2023-04-13T00:31:58.797Z,86.09
2023-04-13T00:37:02.301Z,86.53
2023-04-13T00:42:05.668Z,86.18
2023-04-13T00:47:07.723Z,86.47
2023-04-13T00:52:12.001Z,86.78
2023-04-13T00:57:13.949Z,86.30
2023-04-13T01:02:16.960Z,85.90
2023-04-13T01:07:27.809Z,85.64
2023-04-13T01:13:00.374Z,85.91
2023-04-13T01:18:07.443Z,86.16
2023-04-13T01:23:24.724Z,86.23
2023-04-13T01:28:28.770Z,86.65
2023-04-13T01:33:30.726Z,87.00
2023-04-13T01:38:33.644Z,86.92
2023-04-13T01:43:37.540Z,86.64
2023-04-13T01:48:51.917Z,86.73
2023-04-13T01:54:13.981Z,86.31
2023-04-13T01:59:20.227Z,86.54
2023-04-13T02:04:22.749Z,86.85
2023-04-13T02:09:28.203Z,87.11
2023-04-13T02:14:31.157Z,87.14
2023-04-13T02:19:33.128Z,86.85
2023-04-13T02:24:37.310Z,86.72
2023-04-13T02:29:38.935Z,85.56
2023-04-13T02:34:41.688Z,85.43
2023-04-13T02:39:43.592Z,85.59
2023-04-13T02:44:46.707Z,84.08
2023-04-13T02:49:48.508Z,83.60
2023-04-13T02:55:05.098Z,84.37
2023-04-13T03:00:19.366Z,83.29
2023-04-13T03:05:28.997Z,83.02
2023-04-13T03:10:31.327Z,80.92
2023-04-13T03:15:35.075Z,80.55
2023-04-13T03:20:36.756Z,81.43
2023-04-13T03:25:39.666Z,81.15
2023-04-13T03:30:41.630Z,79.85
2023-04-13T03:35:43.595Z,80.03
2023-04-13T03:40:54.504Z,79.24
2023-04-13T03:45:56.256Z,79.15
2023-04-13T03:50:58.610Z,79.27
2023-04-13T03:56:07.171Z,80.07
2023-04-13T04:01:10.832Z,80.37
2023-04-13T04:06:19.986Z,80.69
2023-04-13T04:11:28.826Z,79.91
2023-04-13T04:16:31.198Z,80.56
2023-04-13T04:21:44.865Z,80.39
2023-04-13T04:26:50.582Z,81.38
2023-04-13T04:31:53.892Z,81.76
2023-04-13T04:37:03.177Z,81.13
2023-04-13T04:42:07.590Z,81.25
2023-04-13T04:47:09.407Z,81.76
2023-04-13T04:52:29.730Z,81.55
2023-04-13T04:57:34.154Z,80.99
2023-04-13T05:02:37.303Z,82.01
2023-04-13T05:07:42.435Z,81.63
2023-04-13T05:12:44.229Z,80.64
2023-04-13T05:17:47.088Z,78.31
2023-04-13T05:22:49.806Z,77.00
2023-04-13T05:27:52.044Z,76.76
2023-04-13T05:32:54.248Z,75.25
2023-04-13T05:37:57.342Z,74.34
2023-04-13T05:42:59.264Z,71.89
2023-04-13T05:48:04.834Z,72.37
2023-04-13T05:53:06.761Z,72.01
2023-04-13T05:58:19.152Z,72.68
2023-04-13T06:03:25.762Z,72.19
2023-04-13T06:08:32.766Z,71.17
2023-04-13T06:13:35.247Z,71.37
2023-04-13T06:18:37.504Z,71.01
2023-04-13T06:23:39.163Z,71.37
2023-04-13T06:28:50.339Z,70.74
2023-04-13T06:33:52.342Z,70.66
2023-04-13T06:38:59.702Z,70.88
2023-04-13T06:44:01.656Z,70.73
2023-04-13T06:49:08.019Z,70.73
2023-04-13T06:54:12.629Z,69.94
2023-04-13T06:59:20.438Z,70.17
2023-04-13T07:04:22.747Z,69.13
2023-04-13T07:09:26.253Z,69.22
2023-04-13T07:14:28.139Z,68.44
2023-04-13T07:19:31.385Z,68.85
2023-04-13T07:24:34.373Z,68.90
2023-04-13T07:29:40.707Z,69.62
2023-04-13T07:34:47.804Z,69.50
2023-04-13T07:39:50.246Z,69.09
2023-04-13T07:44:56.761Z,68.13
2023-04-13T07:50:00.074Z,66.34
2023-04-13T07:55:03.577Z,64.09
2023-04-13T08:00:12.528Z,61.23
2023-04-13T08:05:20.879Z,62.04
2023-04-13T08:10:24.286Z,62.54
2023-04-13T08:15:29.153Z,64.37
2023-04-13T08:20:31.268Z,64.24
2023-04-13T08:25:39.951Z,62.12
2023-04-13T08:30:42.719Z,62.26
2023-04-13T08:35:44.683Z,62.35
2023-04-13T08:40:50.090Z,61.80
2023-04-13T08:45:57.980Z,61.70
2023-04-13T08:51:01.449Z,60.74
2023-04-13T08:56:09.596Z,61.88
2023-04-13T09:01:16.289Z,59.90
2023-04-13T09:06:25.913Z,59.81
2023-04-13T09:11:28.422Z,59.58
2023-04-13T09:16:37.961Z,59.48
2023-04-13T09:21:43.534Z,58.27
2023-04-13T09:26:47.322Z,57.75
2023-04-13T09:31:49.082Z,59.31
2023-04-13T09:36:54.673Z,59.71
2023-04-13T09:41:58.702Z,60.92
2023-04-13T09:47:02.287Z,61.52
2023-04-13T09:52:09.904Z,60.16
2023-04-13T09:57:11.554Z,59.18
2023-04-13T10:02:15.630Z,59.93
2023-04-13T10:07:18.234Z,58.38
2023-04-13T10:12:19.918Z,59.33
2023-04-13T10:17:33.683Z,58.36
2023-04-13T10:22:35.696Z,55.54
2023-04-13T10:27:37.383Z,55.53
2023-04-13T10:32:39.074Z,51.83
2023-04-13T10:37:43.108Z,55.74
2023-04-13T10:42:53.213Z,53.21
2023-04-13T10:47:55.985Z,49.41
2023-04-13T10:52:59.158Z,54.22
2023-04-13T10:58:02.210Z,55.20
2023-04-13T11:03:04.196Z,54.29
2023-04-13T11:08:06.065Z,49.17
2023-04-13T11:13:07.719Z,45.79
2023-04-13T11:18:10.094Z,48.92
2023-04-13T11:23:18.886Z,46.59
2023-04-13T11:28:23.547Z,42.99
2023-04-13T11:33:26.591Z,46.25
2023-04-13T11:38:29.346Z,49.87
2023-04-13T11:43:31.613Z,52.63
2023-04-13T11:48:33.451Z,54.81
2023-04-13T11:53:38.030Z,53.27
2023-04-13T11:58:39.805Z,54.36
2023-04-13T12:03:53.476Z,49.45
2023-04-13T12:09:11.075Z,51.57
2023-04-13T12:19:30.473Z,50.08
2023-04-13T12:24:38.126Z,52.79
2023-04-13T12:29:41.072Z,52.63
2023-04-13T12:34:43.920Z,50.55
2023-04-13T12:39:45.568Z,50.82
2023-04-13T12:44:47.220Z,50.45
2023-04-13T12:49:49.066Z,49.99
2023-04-13T12:54:51.019Z,52.45
2023-04-13T12:59:52.744Z,53.47
2023-04-13T13:04:57.166Z,53.60
2023-04-13T13:10:01.097Z,53.14
2023-04-13T13:15:04.396Z,53.25
2023-04-13T13:20:08.074Z,53.37
2023-04-13T13:25:10.299Z,54.47
2023-04-13T13:30:12.171Z,54.93
2023-04-13T13:35:14.855Z,54.26
2023-04-13T13:40:16.686Z,52.91
2023-04-13T13:45:21.265Z,49.50
2023-04-13T13:50:22.916Z,50.61
2023-04-13T13:55:26.429Z,51.02
2023-04-13T14:00:28.105Z,49.88
2023-04-13T14:05:29.789Z,51.18
2023-04-13T14:10:31.444Z,51.46
2023-04-13T14:15:33.815Z,50.48
2023-04-13T14:20:38.817Z,50.36
2023-04-13T14:25:41.482Z,50.90
2023-04-13T14:30:43.187Z,49.68
2023-04-13T14:35:45.562Z,50.87
2023-04-13T14:40:47.187Z,51.49
2023-04-13T14:45:53.046Z,51.72
2023-04-13T14:50:54.906Z,50.85
2023-04-13T14:55:57.503Z,52.08
2023-04-13T15:00:59.696Z,52.03
2023-04-13T15:06:04.612Z,52.43
2023-04-13T15:11:07.709Z,53.37
2023-04-13T15:16:09.476Z,52.14
2023-04-13T15:21:11.142Z,51.70
2023-04-13T15:26:18.637Z,52.02
2023-04-13T15:31:22.866Z,52.79
2023-04-13T15:36:24.700Z,53.37
2023-04-13T15:41:27.884Z,54.79
2023-04-13T15:46:29.902Z,54.11
2023-04-13T15:51:32.329Z,55.02
2023-04-13T15:56:33.986Z,53.85
2023-04-13T16:01:47.286Z,55.08
2023-04-13T16:07:05.091Z,54.47
2023-04-13T16:12:12.584Z,54.55
2023-04-13T16:17:18.634Z,55.53
2023-04-13T16:22:20.323Z,55.21
2023-04-13T16:27:22.435Z,56.67
2023-04-13T16:32:24.456Z,56.67
2023-04-13T16:37:26.409Z,56.90
2023-04-13T16:42:28.007Z,56.91
2023-04-13T16:47:30.041Z,56.61
2023-04-13T16:52:34.820Z,57.50
2023-04-13T16:57:36.809Z,57.10
2023-04-13T17:02:40.072Z,58.29
2023-04-13T17:07:43.833Z,57.84
2023-04-13T17:12:46.618Z,58.55
2023-04-13T17:17:48.337Z,58.56
2023-04-13T17:22:50.180Z,59.06
2023-04-13T17:27:53.395Z,59.60
2023-04-13T17:32:55.234Z,59.83
2023-04-13T17:37:56.917Z,60.06
2023-04-13T17:42:58.620Z,60.98
2023-04-13T17:48:00.448Z,61.26
2023-04-13T17:53:04.282Z,62.25
2023-04-13T17:58:06.242Z,61.48
2023-04-13T18:03:09.316Z,63.73
2023-04-13T18:08:11.268Z,66.64
2023-04-13T18:13:12.984Z,68.96
2023-04-13T18:18:14.699Z,66.61
2023-04-13T18:23:16.337Z,68.64
2023-04-13T18:28:18.174Z,68.97
2023-04-13T18:33:19.832Z,69.57
2023-04-13T18:38:22.733Z,71.75
2023-04-13T18:43:24.372Z,70.59
2023-04-13T18:48:26.172Z,70.93
2023-04-13T18:53:28.523Z,71.87
2023-04-13T18:58:30.407Z,72.07
2023-04-13T19:03:32.289Z,70.30
2023-04-13T19:08:33.968Z,69.81
2023-04-13T19:13:35.711Z,72.04
2023-04-13T19:18:37.347Z,72.28
2023-04-13T19:23:40.471Z,74.20
2023-04-13T19:28:42.482Z,77.65
2023-04-13T19:33:46.176Z,76.06
2023-04-13T19:38:47.831Z,77.32
2023-04-13T19:43:50.284Z,77.39
2023-04-13T19:48:51.977Z,77.40
2023-04-13T19:53:54.002Z,79.59
2023-04-13T19:58:55.637Z,76.36
2023-04-13T20:03:57.523Z,77.16
2023-04-13T20:09:09.880Z,79.52
2023-04-13T20:14:11.676Z,79.29
2023-04-13T20:19:13.362Z,81.26
2023-04-13T20:24:15.131Z,81.59
2023-04-13T20:29:21.701Z,82.69
2023-04-13T20:34:24.329Z,80.72
2023-04-13T20:39:29.822Z,80.88
2023-04-13T20:44:32.390Z,82.25
2023-04-13T20:49:35.102Z,81.97
2023-04-13T20:54:36.754Z,81.73
2023-04-13T20:59:38.439Z,84.82
2023-04-13T21:04:41.300Z,84.99
2023-04-13T21:09:43.176Z,85.21
2023-04-13T21:14:44.791Z,85.05
2023-04-13T21:19:46.428Z,85.40
2023-04-13T21:24:48.074Z,84.74
2023-04-13T21:29:49.687Z,85.56
2023-04-13T21:34:51.892Z,84.39
2023-04-13T21:39:54.718Z,84.17
2023-04-13T21:44:57.164Z,86.83
2023-04-13T21:49:58.813Z,84.52
2023-04-13T21:55:00.597Z,83.65
2023-04-13T22:00:03.875Z,84.01
2023-04-13T22:05:16.362Z,84.91
2023-04-13T22:10:17.993Z,85.80
2023-04-13T22:15:19.623Z,86.43
2023-04-13T22:20:21.291Z,86.48
2023-04-13T22:25:25.328Z,87.37
2023-04-13T22:30:26.992Z,86.15
2023-04-13T22:35:28.601Z,88.15
2023-04-13T22:40:30.203Z,87.07
2023-04-13T22:45:31.890Z,87.51
2023-04-13T22:50:33.522Z,87.43
2023-04-13T22:55:35.114Z,88.85
2023-04-13T23:00:36.725Z,88.89
2023-04-13T23:05:38.313Z,88.69
2023-04-13T23:10:39.921Z,87.56
2023-04-13T23:15:41.540Z,87.36
2023-04-13T23:20:43.150Z,87.75
2023-04-13T23:25:51.942Z,88.01
2023-04-13T23:30:53.530Z,87.06
2023-04-13T23:35:55.402Z,87.67
2023-04-13T23:40:57.756Z,88.88
2023-04-13T23:45:59.489Z,88.93
2023-04-13T23:51:01.578Z,89.96
2023-04-13T23:56:03.328Z,89.17
